sensor_id;sensor_type;location;lat;lon;timestamp;temperature;humidity
1137;DHT22;557;48.466;7.950;2023-10-19T00:00:31;12.30;99.90
1137;DHT22;557;48.466;7.950;2023-10-19T00:03:00;11.70;99.90
1137;DHT22;557;48.466;7.950;2023-10-19T00:05:30;11.50;99.90
1137;DHT22;557;48.466;7.950;2023-10-19T00:07:57;11.70;99.90
1137;DHT22;557;48.466;7.950;2023-10-19T00:10:25;11.50;99.90
1137;DHT22;557;48.466;7.950;2023-10-19T00:12:55;11.60;99.90
1137;DHT22;557;48.466;7.950;2023-10-19T00:15:26;12.20;99.90
1137;DHT22;557;48.466;7.950;2023-10-19T00:17:57;11.70;99.90
1137;DHT22;557;48.466;7.950;2023-10-19T00:20:25;11.60;99.90
1137;DHT22;557;48.466;7.950;2023-10-19T00:23:03;11.60;99.90
1137;DHT22;557;48.466;7.950;2023-10-19T00:25:32;12.00;99.90
1137;DHT22;557;48.466;7.950;2023-10-19T00:28:00;11.50;99.90
1137;DHT22;557;48.466;7.950;2023-10-19T00:30:30;11.50;99.90
1137;DHT22;557;48.466;7.950;2023-10-19T00:32:58;11.50;99.90
1137;DHT22;557;48.466;7.950;2023-10-19T00:35:29;11.80;99.90
1137;DHT22;557;48.466;7.950;2023-10-19T00:38:03;12.10;99.90
1137;DHT22;557;48.466;7.950;2023-10-19T00:40:53;11.50;99.90
1137;DHT22;557;48.466;7.950;2023-10-19T00:43:28;11.90;99.90
1137;DHT22;557;48.466;7.950;2023-10-19T00:45:58;11.60;99.90
1137;DHT22;557;48.466;7.950;2023-10-19T00:48:27;11.60;99.90
1137;DHT22;557;48.466;7.950;2023-10-19T00:50:54;12.10;99.90
1137;DHT22;557;48.466;7.950;2023-10-19T00:53:35;11.50;99.90
1137;DHT22;557;48.466;7.950;2023-10-19T00:56:07;11.50;99.90
1137;DHT22;557;48.466;7.950;2023-10-19T00:58:36;12.00;99.90
1137;DHT22;557;48.466;7.950;2023-10-19T01:01:04;11.50;99.90
1137;DHT22;557;48.466;7.950;2023-10-19T01:03:32;12.00;99.90
1137;DHT22;557;48.466;7.950;2023-10-19T01:06:04;11.50;99.90
1137;DHT22;557;48.466;7.950;2023-10-19T01:08:38;11.50;99.90
1137;DHT22;557;48.466;7.950;2023-10-19T01:11:11;11.60;99.90
1137;DHT22;557;48.466;7.950;2023-10-19T01:13:41;11.70;99.90
1137;DHT22;557;48.466;7.950;2023-10-19T01:16:13;11.70;99.90
1137;DHT22;557;48.466;7.950;2023-10-19T01:18:48;12.10;99.90
1137;DHT22;557;48.466;7.950;2023-10-19T01:21:20;11.80;99.90
1137;DHT22;557;48.466;7.950;2023-10-19T01:23:51;11.90;99.90
1137;DHT22;557;48.466;7.950;2023-10-19T01:26:18;11.80;99.90
1137;DHT22;557;48.466;7.950;2023-10-19T01:28:47;11.90;99.90
1137;DHT22;557;48.466;7.950;2023-10-19T01:31:19;11.80;99.90
1137;DHT22;557;48.466;7.950;2023-10-19T01:34:05;11.80;99.90
1137;DHT22;557;48.466;7.950;2023-10-19T01:36:35;11.80;99.90
1137;DHT22;557;48.466;7.950;2023-10-19T01:39:09;11.80;99.90
1137;DHT22;557;48.466;7.950;2023-10-19T01:41:36;11.80;99.90
1137;DHT22;557;48.466;7.950;2023-10-19T01:44:03;11.80;99.90
1137;DHT22;557;48.466;7.950;2023-10-19T01:46:31;11.80;99.90
1137;DHT22;557;48.466;7.950;2023-10-19T01:48:59;12.10;99.90
1137;DHT22;557;48.466;7.950;2023-10-19T01:51:30;11.80;99.90
1137;DHT22;557;48.466;7.950;2023-10-19T01:53:58;11.80;99.90
1137;DHT22;557;48.466;7.950;2023-10-19T01:56:27;11.80;99.90
1137;DHT22;557;48.466;7.950;2023-10-19T01:58:54;11.90;99.90
1137;DHT22;557;48.466;7.950;2023-10-19T02:01:21;11.80;99.90
1137;DHT22;557;48.466;7.950;2023-10-19T02:03:54;11.90;99.90
1137;DHT22;557;48.466;7.950;2023-10-19T02:06:24;12.00;99.90
1137;DHT22;557;48.466;7.950;2023-10-19T02:08:54;12.00;99.90
1137;DHT22;557;48.466;7.950;2023-10-19T02:11:23;12.10;99.90
1137;DHT22;557;48.466;7.950;2023-10-19T02:13:53;12.10;99.90
1137;DHT22;557;48.466;7.950;2023-10-19T02:16:21;12.10;99.90
1137;DHT22;557;48.466;7.950;2023-10-19T02:18:48;12.20;99.90
1137;DHT22;557;48.466;7.950;2023-10-19T02:21:16;12.30;99.90
1137;DHT22;557;48.466;7.950;2023-10-19T02:23:47;12.40;99.90
1137;DHT22;557;48.466;7.950;2023-10-19T02:26:16;12.50;99.90
1137;DHT22;557;48.466;7.950;2023-10-19T02:28:42;12.50;99.90
1137;DHT22;557;48.466;7.950;2023-10-19T02:31:11;12.60;99.90
1137;DHT22;557;48.466;7.950;2023-10-19T02:33:41;12.70;99.90
1137;DHT22;557;48.466;7.950;2023-10-19T02:36:13;12.90;99.90
1137;DHT22;557;48.466;7.950;2023-10-19T02:38:41;12.80;99.90
1137;DHT22;557;48.466;7.950;2023-10-19T02:41:10;12.80;99.90
1137;DHT22;557;48.466;7.950;2023-10-19T02:43:37;12.80;99.90
1137;DHT22;557;48.466;7.950;2023-10-19T02:46:04;12.90;99.90
1137;DHT22;557;48.466;7.950;2023-10-19T02:48:31;12.90;99.90
1137;DHT22;557;48.466;7.950;2023-10-19T02:50:58;12.90;99.90
1137;DHT22;557;48.466;7.950;2023-10-19T02:53:34;13.40;99.90
1137;DHT22;557;48.466;7.950;2023-10-19T02:56:09;12.90;99.90
1137;DHT22;557;48.466;7.950;2023-10-19T02:58:37;12.90;99.90
1137;DHT22;557;48.466;7.950;2023-10-19T03:01:12;12.90;99.90
1137;DHT22;557;48.466;7.950;2023-10-19T03:03:40;12.90;99.90
1137;DHT22;557;48.466;7.950;2023-10-19T03:06:09;12.80;99.90
1137;DHT22;557;48.466;7.950;2023-10-19T03:08:35;12.80;99.90
1137;DHT22;557;48.466;7.950;2023-10-19T03:11:02;12.70;99.90
1137;DHT22;557;48.466;7.950;2023-10-19T03:13:29;13.20;99.90
1137;DHT22;557;48.466;7.950;2023-10-19T03:15:58;12.40;99.90
1137;DHT22;557;48.466;7.950;2023-10-19T03:18:25;12.40;99.90
1137;DHT22;557;48.466;7.950;2023-10-19T03:20:54;12.50;99.90
1137;DHT22;557;48.466;7.950;2023-10-19T03:23:20;12.30;99.90
1137;DHT22;557;48.466;7.950;2023-10-19T03:25:53;13.30;99.90
1137;DHT22;557;48.466;7.950;2023-10-19T03:28:38;12.30;99.90
1137;DHT22;557;48.466;7.950;2023-10-19T03:31:06;12.20;99.90
1137;DHT22;557;48.466;7.950;2023-10-19T03:33:34;12.20;99.90
1137;DHT22;557;48.466;7.950;2023-10-19T03:36:03;12.10;99.90
1137;DHT22;557;48.466;7.950;2023-10-19T03:38:31;12.10;99.90
1137;DHT22;557;48.466;7.950;2023-10-19T03:41:00;12.00;99.90
1137;DHT22;557;48.466;7.950;2023-10-19T03:43:32;12.00;99.90
1137;DHT22;557;48.466;7.950;2023-10-19T03:46:02;12.00;99.90
1137;DHT22;557;48.466;7.950;2023-10-19T03:48:40;11.90;99.90
1137;DHT22;557;48.466;7.950;2023-10-19T03:51:08;11.90;99.90
1137;DHT22;557;48.466;7.950;2023-10-19T03:53:39;11.80;99.90
1137;DHT22;557;48.466;7.950;2023-10-19T03:56:09;12.20;99.90
1137;DHT22;557;48.466;7.950;2023-10-19T03:58:37;12.60;99.90
1137;DHT22;557;48.466;7.950;2023-10-19T04:01:04;11.60;99.90
1137;DHT22;557;48.466;7.950;2023-10-19T04:03:35;11.50;99.90
1137;DHT22;557;48.466;7.950;2023-10-19T04:06:03;11.50;99.90
1137;DHT22;557;48.466;7.950;2023-10-19T04:08:32;11.40;99.90
1137;DHT22;557;48.466;7.950;2023-10-19T04:11:04;11.30;99.90
1137;DHT22;557;48.466;7.950;2023-10-19T04:13:48;11.30;99.90
1137;DHT22;557;48.466;7.950;2023-10-19T04:16:19;11.30;99.90
1137;DHT22;557;48.466;7.950;2023-10-19T04:18:46;11.30;99.90
1137;DHT22;557;48.466;7.950;2023-10-19T04:21:16;11.20;99.90
1137;DHT22;557;48.466;7.950;2023-10-19T04:23:44;11.20;99.90
1137;DHT22;557;48.466;7.950;2023-10-19T04:26:18;12.00;99.90
1137;DHT22;557;48.466;7.950;2023-10-19T04:28:45;11.10;99.90
1137;DHT22;557;48.466;7.950;2023-10-19T04:31:15;11.10;99.90
1137;DHT22;557;48.466;7.950;2023-10-19T04:33:44;11.00;99.90
1137;DHT22;557;48.466;7.950;2023-10-19T04:36:16;11.00;99.90
1137;DHT22;557;48.466;7.950;2023-10-19T04:38:49;11.00;99.90
1137;DHT22;557;48.466;7.950;2023-10-19T04:41:17;11.00;99.90
1137;DHT22;557;48.466;7.950;2023-10-19T04:43:44;11.60;99.90
1137;DHT22;557;48.466;7.950;2023-10-19T04:46:15;11.00;99.90
1137;DHT22;557;48.466;7.950;2023-10-19T04:48:44;11.00;99.90
1137;DHT22;557;48.466;7.950;2023-10-19T04:51:11;11.60;99.90
1137;DHT22;557;48.466;7.950;2023-10-19T04:53:38;11.00;99.90
1137;DHT22;557;48.466;7.950;2023-10-19T04:56:08;11.00;99.90
1137;DHT22;557;48.466;7.950;2023-10-19T04:58:38;11.00;99.90
1137;DHT22;557;48.466;7.950;2023-10-19T05:01:05;10.90;99.90
1137;DHT22;557;48.466;7.950;2023-10-19T05:03:32;11.00;99.90
1137;DHT22;557;48.466;7.950;2023-10-19T05:06:00;10.90;99.90
1137;DHT22;557;48.466;7.950;2023-10-19T05:08:27;10.90;99.90
1137;DHT22;557;48.466;7.950;2023-10-19T05:10:55;10.90;99.90
1137;DHT22;557;48.466;7.950;2023-10-19T05:13:26;10.80;99.90
1137;DHT22;557;48.466;7.950;2023-10-19T05:15:53;10.80;99.90
1137;DHT22;557;48.466;7.950;2023-10-19T05:18:20;10.90;99.90
1137;DHT22;557;48.466;7.950;2023-10-19T05:20:47;10.80;99.90
1137;DHT22;557;48.466;7.950;2023-10-19T05:23:15;10.90;99.90
1137;DHT22;557;48.466;7.950;2023-10-19T05:25:42;10.80;99.90
1137;DHT22;557;48.466;7.950;2023-10-19T05:28:09;10.80;99.90
1137;DHT22;557;48.466;7.950;2023-10-19T05:30:37;10.80;99.90
1137;DHT22;557;48.466;7.950;2023-10-19T05:33:04;11.80;99.90
1137;DHT22;557;48.466;7.950;2023-10-19T05:35:31;10.70;99.90
1137;DHT22;557;48.466;7.950;2023-10-19T05:38:00;10.80;99.90
1137;DHT22;557;48.466;7.950;2023-10-19T05:40:28;10.70;99.90
1137;DHT22;557;48.466;7.950;2023-10-19T05:42:56;11.20;99.90
1137;DHT22;557;48.466;7.950;2023-10-19T05:45:26;10.70;99.90
1137;DHT22;557;48.466;7.950;2023-10-19T05:47:55;11.10;99.90
1137;DHT22;557;48.466;7.950;2023-10-19T05:50:27;10.70;99.90
1137;DHT22;557;48.466;7.950;2023-10-19T05:52:55;10.70;99.90
1137;DHT22;557;48.466;7.950;2023-10-19T05:55:21;11.60;99.90
1137;DHT22;557;48.466;7.950;2023-10-19T05:57:49;10.70;99.90
1137;DHT22;557;48.466;7.950;2023-10-19T06:00:16;10.80;99.90
1137;DHT22;557;48.466;7.950;2023-10-19T06:02:47;10.80;99.90
1137;DHT22;557;48.466;7.950;2023-10-19T06:05:16;10.80;99.90
1137;DHT22;557;48.466;7.950;2023-10-19T06:07:43;10.90;99.90
1137;DHT22;557;48.466;7.950;2023-10-19T06:10:15;11.00;99.90
1137;DHT22;557;48.466;7.950;2023-10-19T06:12:43;11.00;99.90
1137;DHT22;557;48.466;7.950;2023-10-19T06:15:10;11.60;99.90
1137;DHT22;557;48.466;7.950;2023-10-19T06:17:38;11.10;99.90
1137;DHT22;557;48.466;7.950;2023-10-19T06:20:07;11.10;99.90
1137;DHT22;557;48.466;7.950;2023-10-19T06:22:46;11.20;99.90
1137;DHT22;557;48.466;7.950;2023-10-19T06:25:16;11.30;99.90
1137;DHT22;557;48.466;7.950;2023-10-19T06:27:44;11.50;99.90
1137;DHT22;557;48.466;7.950;2023-10-19T06:30:12;11.50;99.90
1137;DHT22;557;48.466;7.950;2023-10-19T06:32:44;11.50;99.90
1137;DHT22;557;48.466;7.950;2023-10-19T06:35:11;11.50;99.90
1137;DHT22;557;48.466;7.950;2023-10-19T06:37:38;11.60;99.90
1137;DHT22;557;48.466;7.950;2023-10-19T06:40:08;12.80;99.90
1137;DHT22;557;48.466;7.950;2023-10-19T06:42:37;11.60;99.90
1137;DHT22;557;48.466;7.950;2023-10-19T06:45:04;11.60;99.90
1137;DHT22;557;48.466;7.950;2023-10-19T06:47:32;11.70;99.90
1137;DHT22;557;48.466;7.950;2023-10-19T06:50:04;11.80;99.90
1137;DHT22;557;48.466;7.950;2023-10-19T06:52:33;11.90;99.90
1137;DHT22;557;48.466;7.950;2023-10-19T06:55:02;12.50;99.90
1137;DHT22;557;48.466;7.950;2023-10-19T06:57:31;12.10;99.90
1137;DHT22;557;48.466;7.950;2023-10-19T06:59:58;12.00;99.90
1137;DHT22;557;48.466;7.950;2023-10-19T07:02:33;12.30;99.90
1137;DHT22;557;48.466;7.950;2023-10-19T07:04:59;12.80;99.90
1137;DHT22;557;48.466;7.950;2023-10-19T07:07:26;12.50;99.90
1137;DHT22;557;48.466;7.950;2023-10-19T07:09:54;12.60;99.90
1137;DHT22;557;48.466;7.950;2023-10-19T07:12:21;12.60;99.90
1137;DHT22;557;48.466;7.950;2023-10-19T07:14:50;12.80;99.90
1137;DHT22;557;48.466;7.950;2023-10-19T07:17:16;12.70;99.90
1137;DHT22;557;48.466;7.950;2023-10-19T07:19:43;12.90;99.90
1137;DHT22;557;48.466;7.950;2023-10-19T07:22:14;13.60;99.90
1137;DHT22;557;48.466;7.950;2023-10-19T07:24:42;13.20;99.90
1137;DHT22;557;48.466;7.950;2023-10-19T07:27:09;13.20;99.90
1137;DHT22;557;48.466;7.950;2023-10-19T07:29:43;13.90;99.90
1137;DHT22;557;48.466;7.950;2023-10-19T07:32:12;13.20;99.90
1137;DHT22;557;48.466;7.950;2023-10-19T07:34:39;13.30;99.90
1137;DHT22;557;48.466;7.950;2023-10-19T07:37:06;13.50;99.90
1137;DHT22;557;48.466;7.950;2023-10-19T07:39:33;13.60;99.90
1137;DHT22;557;48.466;7.950;2023-10-19T07:42:00;13.80;99.90
1137;DHT22;557;48.466;7.950;2023-10-19T07:44:32;14.70;99.90
1137;DHT22;557;48.466;7.950;2023-10-19T07:46:59;13.70;99.90
1137;DHT22;557;48.466;7.950;2023-10-19T07:49:27;14.00;99.90
1137;DHT22;557;48.466;7.950;2023-10-19T07:51:54;14.60;99.90
1137;DHT22;557;48.466;7.950;2023-10-19T07:54:23;14.10;99.90
1137;DHT22;557;48.466;7.950;2023-10-19T07:56:49;14.30;99.90
1137;DHT22;557;48.466;7.950;2023-10-19T07:59:16;14.40;99.90
1137;DHT22;557;48.466;7.950;2023-10-19T08:01:43;14.50;99.90
1137;DHT22;557;48.466;7.950;2023-10-19T08:04:11;14.60;99.90
1137;DHT22;557;48.466;7.950;2023-10-19T08:06:39;14.70;99.90
1137;DHT22;557;48.466;7.950;2023-10-19T08:09:06;14.60;99.90
1137;DHT22;557;48.466;7.950;2023-10-19T08:11:37;14.50;99.90
1137;DHT22;557;48.466;7.950;2023-10-19T08:14:03;14.60;99.90
1137;DHT22;557;48.466;7.950;2023-10-19T08:16:31;14.40;99.90
1137;DHT22;557;48.466;7.950;2023-10-19T08:18:58;14.40;99.90
1137;DHT22;557;48.466;7.950;2023-10-19T08:21:25;14.00;99.90
1137;DHT22;557;48.466;7.950;2023-10-19T08:23:55;14.30;99.90
1137;DHT22;557;48.466;7.950;2023-10-19T08:26:22;14.30;99.90
1137;DHT22;557;48.466;7.950;2023-10-19T08:28:49;14.40;99.90
1137;DHT22;557;48.466;7.950;2023-10-19T08:31:17;14.40;99.90
1137;DHT22;557;48.466;7.950;2023-10-19T08:33:44;14.50;99.90
1137;DHT22;557;48.466;7.950;2023-10-19T08:36:18;14.50;99.90
1137;DHT22;557;48.466;7.950;2023-10-19T08:38:46;14.60;99.90
1137;DHT22;557;48.466;7.950;2023-10-19T08:41:15;14.70;99.90
1137;DHT22;557;48.466;7.950;2023-10-19T08:43:42;14.70;99.90
1137;DHT22;557;48.466;7.950;2023-10-19T08:46:10;14.70;99.90
1137;DHT22;557;48.466;7.950;2023-10-19T08:48:38;14.70;99.90
1137;DHT22;557;48.466;7.950;2023-10-19T08:51:10;14.70;99.90
1137;DHT22;557;48.466;7.950;2023-10-19T08:53:38;14.80;99.90
1137;DHT22;557;48.466;7.950;2023-10-19T08:56:10;14.90;99.90
1137;DHT22;557;48.466;7.950;2023-10-19T08:58:39;15.00;99.90
1137;DHT22;557;48.466;7.950;2023-10-19T09:01:06;15.10;99.90
1137;DHT22;557;48.466;7.950;2023-10-19T09:03:35;15.20;99.90
1137;DHT22;557;48.466;7.950;2023-10-19T09:06:04;15.20;99.90
1137;DHT22;557;48.466;7.950;2023-10-19T09:08:31;15.30;99.90
1137;DHT22;557;48.466;7.950;2023-10-19T09:11:09;15.40;99.90
1137;DHT22;557;48.466;7.950;2023-10-19T09:13:46;15.50;99.90
1137;DHT22;557;48.466;7.950;2023-10-19T09:16:14;15.40;99.90
1137;DHT22;557;48.466;7.950;2023-10-19T09:18:42;15.40;99.90
1137;DHT22;557;48.466;7.950;2023-10-19T09:21:11;15.40;99.90
1137;DHT22;557;48.466;7.950;2023-10-19T09:23:49;15.40;99.90
1137;DHT22;557;48.466;7.950;2023-10-19T09:26:17;15.40;99.90
1137;DHT22;557;48.466;7.950;2023-10-19T09:28:48;15.50;99.90
1137;DHT22;557;48.466;7.950;2023-10-19T09:31:15;15.60;99.90
1137;DHT22;557;48.466;7.950;2023-10-19T09:33:44;15.70;99.90
1137;DHT22;557;48.466;7.950;2023-10-19T09:36:12;15.60;99.90
1137;DHT22;557;48.466;7.950;2023-10-19T09:38:39;15.50;99.90
1137;DHT22;557;48.466;7.950;2023-10-19T09:41:12;15.60;99.90
1137;DHT22;557;48.466;7.950;2023-10-19T09:43:44;15.50;99.90
1137;DHT22;557;48.466;7.950;2023-10-19T09:46:15;15.50;99.90
1137;DHT22;557;48.466;7.950;2023-10-19T09:48:45;15.60;99.90
1137;DHT22;557;48.466;7.950;2023-10-19T09:51:14;15.50;99.90
1137;DHT22;557;48.466;7.950;2023-10-19T09:53:44;15.50;99.90
1137;DHT22;557;48.466;7.950;2023-10-19T09:56:15;15.60;99.90
1137;DHT22;557;48.466;7.950;2023-10-19T09:58:47;15.60;99.90
1137;DHT22;557;48.466;7.950;2023-10-19T10:01:16;15.70;99.90
1137;DHT22;557;48.466;7.950;2023-10-19T10:03:48;15.70;99.90
1137;DHT22;557;48.466;7.950;2023-10-19T10:06:17;15.80;99.90
1137;DHT22;557;48.466;7.950;2023-10-19T10:08:54;15.80;99.90
1137;DHT22;557;48.466;7.950;2023-10-19T10:11:22;15.90;99.90
1137;DHT22;557;48.466;7.950;2023-10-19T10:13:51;15.90;99.90
1137;DHT22;557;48.466;7.950;2023-10-19T10:16:23;16.10;99.90
1137;DHT22;557;48.466;7.950;2023-10-19T10:18:54;15.90;99.90
1137;DHT22;557;48.466;7.950;2023-10-19T10:21:24;15.90;99.90
1137;DHT22;557;48.466;7.950;2023-10-19T10:23:53;16.90;99.90
1137;DHT22;557;48.466;7.950;2023-10-19T10:26:21;15.90;99.90
1137;DHT22;557;48.466;7.950;2023-10-19T10:29:08;15.90;99.90
1137;DHT22;557;48.466;7.950;2023-10-19T10:31:42;16.00;99.90
1137;DHT22;557;48.466;7.950;2023-10-19T10:34:10;16.40;99.90
1137;DHT22;557;48.466;7.950;2023-10-19T10:36:59;16.90;99.90
1137;DHT22;557;48.466;7.950;2023-10-19T10:39:28;15.90;99.90
1137;DHT22;557;48.466;7.950;2023-10-19T10:41:57;15.90;99.90
1137;DHT22;557;48.466;7.950;2023-10-19T10:44:38;16.10;99.90
1137;DHT22;557;48.466;7.950;2023-10-19T10:47:08;15.80;99.90
1137;DHT22;557;48.466;7.950;2023-10-19T10:49:52;15.80;99.90
1137;DHT22;557;48.466;7.950;2023-10-19T10:52:26;15.90;99.90
1137;DHT22;557;48.466;7.950;2023-10-19T10:54:54;15.90;99.90
1137;DHT22;557;48.466;7.950;2023-10-19T10:57:21;16.10;99.90
1137;DHT22;557;48.466;7.950;2023-10-19T11:00:01;16.00;99.90
1137;DHT22;557;48.466;7.950;2023-10-19T11:02:30;16.10;99.90
1137;DHT22;557;48.466;7.950;2023-10-19T11:04:58;16.20;99.90
1137;DHT22;557;48.466;7.950;2023-10-19T11:07:25;16.20;99.90
1137;DHT22;557;48.466;7.950;2023-10-19T11:09:52;16.20;99.90
1137;DHT22;557;48.466;7.950;2023-10-19T11:12:20;16.30;99.90
1137;DHT22;557;48.466;7.950;2023-10-19T11:14:54;16.30;99.90
1137;DHT22;557;48.466;7.950;2023-10-19T11:17:21;16.30;99.90
1137;DHT22;557;48.466;7.950;2023-10-19T11:19:55;16.30;99.90
1137;DHT22;557;48.466;7.950;2023-10-19T11:22:23;16.30;99.90
1137;DHT22;557;48.466;7.950;2023-10-19T11:24:52;16.30;99.90
1137;DHT22;557;48.466;7.950;2023-10-19T11:27:24;16.40;99.90
1137;DHT22;557;48.466;7.950;2023-10-19T11:29:55;16.40;99.90
1137;DHT22;557;48.466;7.950;2023-10-19T11:32:22;16.40;99.90
1137;DHT22;557;48.466;7.950;2023-10-19T11:34:51;16.40;99.90
1137;DHT22;557;48.466;7.950;2023-10-19T11:37:19;16.50;99.90
1137;DHT22;557;48.466;7.950;2023-10-19T11:39:46;16.50;99.90
1137;DHT22;557;48.466;7.950;2023-10-19T11:42:15;16.50;99.90
1137;DHT22;557;48.466;7.950;2023-10-19T11:44:43;16.60;99.90
1137;DHT22;557;48.466;7.950;2023-10-19T11:47:10;16.60;99.90
1137;DHT22;557;48.466;7.950;2023-10-19T11:49:38;16.70;99.90
1137;DHT22;557;48.466;7.950;2023-10-19T11:52:06;17.40;99.90
1137;DHT22;557;48.466;7.950;2023-10-19T11:54:35;16.60;99.90
1137;DHT22;557;48.466;7.950;2023-10-19T11:57:02;16.60;99.90
1137;DHT22;557;48.466;7.950;2023-10-19T11:59:29;16.60;99.90
1137;DHT22;557;48.466;7.950;2023-10-19T12:01:55;16.60;99.90
1137;DHT22;557;48.466;7.950;2023-10-19T12:04:24;16.50;99.90
1137;DHT22;557;48.466;7.950;2023-10-19T12:06:51;16.50;99.90
1137;DHT22;557;48.466;7.950;2023-10-19T12:09:18;16.50;99.90
1137;DHT22;557;48.466;7.950;2023-10-19T12:11:51;16.40;99.90
1137;DHT22;557;48.466;7.950;2023-10-19T12:14:20;16.40;99.90
1137;DHT22;557;48.466;7.950;2023-10-19T12:16:48;16.40;99.90
1137;DHT22;557;48.466;7.950;2023-10-19T12:19:15;16.40;99.90
1137;DHT22;557;48.466;7.950;2023-10-19T12:21:44;16.40;99.90
1137;DHT22;557;48.466;7.950;2023-10-19T12:24:11;16.40;99.90
1137;DHT22;557;48.466;7.950;2023-10-19T12:26:38;16.40;99.90
1137;DHT22;557;48.466;7.950;2023-10-19T12:29:06;16.30;99.90
1137;DHT22;557;48.466;7.950;2023-10-19T12:31:36;16.30;99.90
1137;DHT22;557;48.466;7.950;2023-10-19T12:34:05;16.50;99.90
1137;DHT22;557;48.466;7.950;2023-10-19T12:36:34;16.40;99.90
1137;DHT22;557;48.466;7.950;2023-10-19T12:39:01;16.30;99.90
1137;DHT22;557;48.466;7.950;2023-10-19T12:41:27;16.80;99.90
1137;DHT22;557;48.466;7.950;2023-10-19T12:43:54;16.30;99.90
1137;DHT22;557;48.466;7.950;2023-10-19T12:46:26;16.30;99.90
1137;DHT22;557;48.466;7.950;2023-10-19T12:48:55;16.40;99.90
1137;DHT22;557;48.466;7.950;2023-10-19T12:51:23;16.40;99.90
1137;DHT22;557;48.466;7.950;2023-10-19T12:53:50;16.50;99.90
1137;DHT22;557;48.466;7.950;2023-10-19T12:56:17;16.50;99.90
1137;DHT22;557;48.466;7.950;2023-10-19T12:58:44;16.60;99.90
1137;DHT22;557;48.466;7.950;2023-10-19T13:01:11;16.80;99.90
1137;DHT22;557;48.466;7.950;2023-10-19T13:03:44;16.60;99.90
1137;DHT22;557;48.466;7.950;2023-10-19T13:06:13;16.40;99.90
1137;DHT22;557;48.466;7.950;2023-10-19T13:08:40;16.40;99.90
1137;DHT22;557;48.466;7.950;2023-10-19T13:11:07;16.50;99.90
1137;DHT22;557;48.466;7.950;2023-10-19T13:13:35;16.40;99.90
1137;DHT22;557;48.466;7.950;2023-10-19T13:16:03;16.40;99.90
1137;DHT22;557;48.466;7.950;2023-10-19T13:18:31;16.30;99.90
1137;DHT22;557;48.466;7.950;2023-10-19T13:21:01;16.30;99.90
1137;DHT22;557;48.466;7.950;2023-10-19T13:23:30;16.30;99.90
1137;DHT22;557;48.466;7.950;2023-10-19T13:25:58;16.30;99.90
1137;DHT22;557;48.466;7.950;2023-10-19T13:28:34;16.30;99.90
1137;DHT22;557;48.466;7.950;2023-10-19T13:31:03;16.30;99.90
1137;DHT22;557;48.466;7.950;2023-10-19T13:33:30;16.30;99.90
1137;DHT22;557;48.466;7.950;2023-10-19T13:35:57;16.30;99.90
1137;DHT22;557;48.466;7.950;2023-10-19T13:38:25;16.40;99.90
1137;DHT22;557;48.466;7.950;2023-10-19T13:40:52;17.10;99.90
1137;DHT22;557;48.466;7.950;2023-10-19T13:43:19;16.40;99.90
1137;DHT22;557;48.466;7.950;2023-10-19T13:45:47;16.50;99.90
1137;DHT22;557;48.466;7.950;2023-10-19T13:48:15;16.50;99.90
1137;DHT22;557;48.466;7.950;2023-10-19T13:50:43;16.90;99.90
1137;DHT22;557;48.466;7.950;2023-10-19T13:53:11;17.10;99.90
1137;DHT22;557;48.466;7.950;2023-10-19T13:55:39;16.60;99.90
1137;DHT22;557;48.466;7.950;2023-10-19T13:58:06;16.60;99.90
1137;DHT22;557;48.466;7.950;2023-10-19T14:00:33;16.70;99.90
1137;DHT22;557;48.466;7.950;2023-10-19T14:03:06;16.70;99.90
1137;DHT22;557;48.466;7.950;2023-10-19T14:05:37;17.00;99.90
1137;DHT22;557;48.466;7.950;2023-10-19T14:08:06;17.00;99.90
1137;DHT22;557;48.466;7.950;2023-10-19T14:10:33;17.00;99.90
1137;DHT22;557;48.466;7.950;2023-10-19T14:13:01;17.00;99.90
1137;DHT22;557;48.466;7.950;2023-10-19T14:15:30;17.00;99.90
1137;DHT22;557;48.466;7.950;2023-10-19T14:18:00;17.00;99.90
1137;DHT22;557;48.466;7.950;2023-10-19T14:20:29;17.00;99.90
1137;DHT22;557;48.466;7.950;2023-10-19T14:22:56;17.10;99.90
1137;DHT22;557;48.466;7.950;2023-10-19T14:25:23;17.10;99.90
1137;DHT22;557;48.466;7.950;2023-10-19T14:27:52;17.10;99.90
1137;DHT22;557;48.466;7.950;2023-10-19T14:30:24;17.10;99.90
1137;DHT22;557;48.466;7.950;2023-10-19T14:32:51;17.20;99.90
1137;DHT22;557;48.466;7.950;2023-10-19T14:35:20;17.30;99.90
1137;DHT22;557;48.466;7.950;2023-10-19T14:37:49;17.10;99.90
1137;DHT22;557;48.466;7.950;2023-10-19T14:40:17;17.00;99.90
1137;DHT22;557;48.466;7.950;2023-10-19T14:42:46;16.90;99.90
1137;DHT22;557;48.466;7.950;2023-10-19T14:45:14;16.90;99.90
1137;DHT22;557;48.466;7.950;2023-10-19T14:47:46;16.90;99.90
1137;DHT22;557;48.466;7.950;2023-10-19T14:50:15;17.00;99.90
1137;DHT22;557;48.466;7.950;2023-10-19T14:52:45;17.00;99.90
1137;DHT22;557;48.466;7.950;2023-10-19T14:55:13;16.90;99.90
1137;DHT22;557;48.466;7.950;2023-10-19T14:57:42;16.90;99.90
1137;DHT22;557;48.466;7.950;2023-10-19T15:00:12;16.80;99.90
1137;DHT22;557;48.466;7.950;2023-10-19T15:02:44;16.80;99.90
1137;DHT22;557;48.466;7.950;2023-10-19T15:05:11;16.80;99.90
1137;DHT22;557;48.466;7.950;2023-10-19T15:07:42;16.70;99.90
1137;DHT22;557;48.466;7.950;2023-10-19T15:10:10;16.60;99.90
1137;DHT22;557;48.466;7.950;2023-10-19T15:12:38;16.60;99.90
1137;DHT22;557;48.466;7.950;2023-10-19T15:15:06;16.50;99.90
1137;DHT22;557;48.466;7.950;2023-10-19T15:17:34;16.50;99.90
1137;DHT22;557;48.466;7.950;2023-10-19T15:20:03;16.50;99.90
1137;DHT22;557;48.466;7.950;2023-10-19T15:22:31;16.50;99.90
1137;DHT22;557;48.466;7.950;2023-10-19T15:24:58;16.50;99.90
1137;DHT22;557;48.466;7.950;2023-10-19T15:27:25;16.50;99.90
1137;DHT22;557;48.466;7.950;2023-10-19T15:29:54;17.10;99.90
1137;DHT22;557;48.466;7.950;2023-10-19T15:32:22;16.50;99.90
1137;DHT22;557;48.466;7.950;2023-10-19T15:34:50;16.70;99.90
1137;DHT22;557;48.466;7.950;2023-10-19T15:37:18;16.50;99.90
1137;DHT22;557;48.466;7.950;2023-10-19T15:39:45;16.80;99.90
1137;DHT22;557;48.466;7.950;2023-10-19T15:42:12;17.30;99.90
1137;DHT22;557;48.466;7.950;2023-10-19T15:44:39;16.40;99.90
1137;DHT22;557;48.466;7.950;2023-10-19T15:47:06;16.30;99.90
1137;DHT22;557;48.466;7.950;2023-10-19T15:49:49;17.40;99.90
1137;DHT22;557;48.466;7.950;2023-10-19T15:52:20;16.30;99.90
1137;DHT22;557;48.466;7.950;2023-10-19T15:54:47;16.30;99.90
1137;DHT22;557;48.466;7.950;2023-10-19T15:57:14;16.30;99.90
1137;DHT22;557;48.466;7.950;2023-10-19T15:59:41;17.60;99.90
1137;DHT22;557;48.466;7.950;2023-10-19T16:02:08;16.40;99.90
1137;DHT22;557;48.466;7.950;2023-10-19T16:04:35;16.30;99.90
1137;DHT22;557;48.466;7.950;2023-10-19T16:07:02;16.20;99.90
1137;DHT22;557;48.466;7.950;2023-10-19T16:09:32;16.20;99.90
1137;DHT22;557;48.466;7.950;2023-10-19T16:11:58;16.20;99.90
1137;DHT22;557;48.466;7.950;2023-10-19T16:14:25;16.20;99.90
1137;DHT22;557;48.466;7.950;2023-10-19T16:16:55;16.30;99.90
1137;DHT22;557;48.466;7.950;2023-10-19T16:19:22;16.30;99.90
1137;DHT22;557;48.466;7.950;2023-10-19T16:21:49;16.20;99.90
1137;DHT22;557;48.466;7.950;2023-10-19T16:24:17;16.20;99.90
1137;DHT22;557;48.466;7.950;2023-10-19T16:26:45;16.20;99.90
1137;DHT22;557;48.466;7.950;2023-10-19T16:29:13;16.50;99.90